Time;durP1;ratioP1;P1;durP2;ratioP2;P2;SDS_P1;SDS_P2;PMS_P1;PMS_P2;Temp;Humidity;BMP_temperature;BMP_pressure;BME280_temperature;BME280_humidity;BME280_pressure;Samples;Min_cycle;Max_cycle;Signal;HPM_P1;HPM_P2
2022/11/22 00:00:24;;;;;;;2.87;2.62;;;;;;;0.22;73.99;98106.06;1723573;83;21008;-39
2022/11/22 00:02:51;;;;;;;2.92;2.42;;;;;;;0.20;73.99;98101.59;1723609;83;21032;-39
2022/11/22 00:05:19;;;;;;;3.17;2.27;;;;;;;0.20;74.11;98096.27;1723632;83;21019;-39
2022/11/22 00:07:46;;;;;;;3.02;2.72;;;;;;;0.19;74.33;98104.60;1723482;83;21248;-39
2022/11/22 00:10:15;;;;;;;3.25;2.60;;;;;;;0.16;74.08;98107.89;1723414;83;20928;-39
2022/11/22 00:12:43;;;;;;;3.30;2.75;;;;;;;0.10;74.32;98111.28;1723676;83;20952;-39
2022/11/22 00:15:11;;;;;;;3.33;3.02;;;;;;;0.06;74.20;98110.92;1723565;83;21015;-39
2022/11/22 00:17:38;;;;;;;3.98;3.20;;;;;;;0.01;74.44;98115.88;1723808;83;21040;-39
2022/11/22 00:20:09;;;;;;;4.62;3.30;;;;;;;0.02;74.64;98117.99;1723469;83;23172;-39
2022/11/22 00:22:37;;;;;;;4.37;3.30;;;;;;;0.01;74.78;98117.20;1723771;83;21008;-39
2022/11/22 00:25:05;;;;;;;5.45;3.58;;;;;;;0.05;74.62;98130.11;1723696;83;20921;-39
2022/11/22 00:27:32;;;;;;;5.28;3.58;;;;;;;0.03;74.67;98121.67;1723740;83;21564;-39
2022/11/22 00:29:58;;;;;;;5.55;3.30;;;;;;;0.02;74.50;98134.77;1723694;83;21594;-39
2022/11/22 00:32:25;;;;;;;4.42;3.52;;;;;;;-0.01;74.65;98136.74;1723793;83;21149;-39
2022/11/22 00:34:54;;;;;;;4.72;3.77;;;;;;;-0.04;74.61;98140.81;1723661;83;20921;-39
2022/11/22 00:37:21;;;;;;;4.83;3.95;;;;;;;-0.06;74.80;98138.25;1716074;83;21040;-39
2022/11/22 00:39:48;;;;;;;4.70;3.92;;;;;;;-0.09;74.71;98138.88;1708262;83;21510;-39
2022/11/22 00:42:15;;;;;;;5.28;4.15;;;;;;;-0.11;74.88;98135.22;1708247;83;21500;-39
2022/11/22 00:44:41;;;;;;;6.05;4.12;;;;;;;-0.10;75.01;98141.33;1708464;83;21475;-39
2022/11/22 00:47:08;;;;;;;5.75;4.30;;;;;;;-0.10;74.68;98148.74;1744005;81;21586;-39
2022/11/22 00:49:35;;;;;;;4.85;3.87;;;;;;;-0.13;74.78;98149.94;1743380;81;20960;-39
2022/11/22 00:52:01;;;;;;;5.95;4.50;;;;;;;-0.16;74.58;98149.25;1707665;83;21002;-39
2022/11/22 00:54:29;;;;;;;6.67;4.58;;;;;;;-0.23;74.77;98142.28;1707704;84;20997;-39
2022/11/22 00:56:55;;;;;;;7.30;4.78;;;;;;;-0.26;75.04;98138.39;1743397;81;21234;-39
2022/11/22 00:59:22;;;;;;;4.95;4.45;;;;;;;-0.28;75.08;98123.81;1707645;83;20949;-39
2022/11/22 01:01:50;;;;;;;6.22;4.97;;;;;;;-0.30;75.11;98123.38;1707751;84;21561;-39
2022/11/22 01:04:17;;;;;;;7.83;4.60;;;;;;;-0.27;74.99;98124.05;1707544;84;20997;-39
2022/11/22 01:06:44;;;;;;;6.58;5.17;;;;;;;-0.29;74.95;98131.02;1707789;84;21084;-39
2022/11/22 01:09:12;;;;;;;6.53;4.95;;;;;;;-0.26;75.00;98129.07;1707571;84;21222;-39
2022/11/22 01:11:41;;;;;;;7.72;5.30;;;;;;;-0.25;74.86;98128.53;1707552;84;21053;-39
2022/11/22 01:14:07;;;;;;;7.67;5.58;;;;;;;-0.26;74.55;98126.95;1743543;82;21008;-39
2022/11/22 01:16:34;;;;;;;7.50;5.45;;;;;;;-0.34;74.77;98125.89;1743678;82;20962;-39
2022/11/22 01:19:01;;;;;;;8.30;5.55;;;;;;;-0.33;74.77;98127.44;1743712;81;21045;-39
2022/11/22 01:21:28;;;;;;;7.35;5.40;;;;;;;-0.35;74.86;98126.98;1743523;82;23150;-39
2022/11/22 01:23:55;;;;;;;7.47;5.42;;;;;;;-0.35;74.81;98118.22;1743595;82;20903;-39
2022/11/22 01:26:22;;;;;;;6.05;5.10;;;;;;;-0.36;74.77;98109.44;1743549;82;20974;-39
2022/11/22 01:28:49;;;;;;;9.78;5.87;;;;;;;-0.38;74.60;98117.50;1743448;82;21005;-39
2022/11/22 01:31:16;;;;;;;7.90;6.08;;;;;;;-0.42;74.43;98119.23;1707678;83;21014;-39
2022/11/22 01:33:44;;;;;;;7.30;5.78;;;;;;;-0.50;74.75;98129.61;1743433;82;21239;-39
2022/11/22 01:36:11;;;;;;;7.42;5.60;;;;;;;-0.52;74.86;98138.45;1707415;84;20989;-39
2022/11/22 01:38:38;;;;;;;7.87;5.70;;;;;;;-0.53;74.97;98150.19;1707834;83;21020;-39
2022/11/22 01:41:05;;;;;;;7.42;5.83;;;;;;;-0.51;74.87;98154.66;1707623;84;21061;-39
2022/11/22 01:43:34;;;;;;;7.58;5.95;;;;;;;-0.54;74.78;98161.95;1743602;82;21507;-39
2022/11/22 01:46:06;;;;;;;8.05;6.35;;;;;;;-0.53;74.87;98164.83;1743279;81;21468;-39
2022/11/22 01:48:54;;;;;;;7.40;5.60;;;;;;;-0.50;74.90;98162.88;1707739;83;21503;-39
2022/11/22 01:51:27;;;;;;;8.93;6.33;;;;;;;-0.53;74.97;98163.50;1743475;82;20981;-39
2022/11/22 01:53:57;;;;;;;8.10;6.05;;;;;;;-0.57;74.81;98167.11;1686148;84;21683;-39
2022/11/22 06:59:13;;;;;;;9.50;8.20;;;;;;;-0.71;79.31;98416.11;1836100;78;22647;-39
2022/11/22 07:01:40;;;;;;;11.08;8.38;;;;;;;-0.64;78.48;98419.12;1796144;79;21001;-38
2022/11/22 07:04:07;;;;;;;10.23;8.15;;;;;;;-0.67;78.37;98418.39;1788402;80;21833;-38
2022/11/22 07:06:37;;;;;;;11.40;8.10;;;;;;;-0.62;78.43;98406.81;1788253;80;20970;-39
2022/11/22 07:09:09;;;;;;;10.28;7.95;;;;;;;-0.54;77.78;98409.52;1788205;80;20923;-39
2022/11/22 07:11:38;;;;;;;9.85;7.70;;;;;;;-0.48;77.41;98412.80;1788189;80;20966;-39
2022/11/22 07:14:06;;;;;;;11.30;8.03;;;;;;;-0.45;77.04;98417.52;1788478;80;22754;-39
2022/11/22 07:16:34;;;;;;;10.82;8.38;;;;;;;-0.46;76.31;98418.06;1788099;80;23204;-38
2022/11/22 07:19:01;;;;;;;11.38;8.40;;;;;;;-0.51;76.30;98407.56;1757730;80;20997;-39
2022/11/22 07:21:28;;;;;;;12.23;8.58;;;;;;;-0.40;75.87;98421.91;1788283;80;20962;-38
2022/11/22 07:23:54;;;;;;;10.93;7.75;;;;;;;-0.41;75.58;98417.67;1788210;80;20975;-39
2022/11/22 07:26:24;;;;;;;11.08;8.80;;;;;;;-0.41;75.36;98427.78;1788498;80;21006;-39
2022/11/22 07:28:50;;;;;;;9.40;6.70;;;;;;;-0.45;75.69;98430.29;1788526;80;21116;-39
2022/11/22 07:31:17;;;;;;;10.08;8.05;;;;;;;-0.40;75.69;98440.55;1788470;80;20946;-38
2022/11/22 07:33:45;;;;;;;10.43;8.63;;;;;;;-0.44;75.48;98437.73;1788451;80;21002;-38
2022/11/22 07:36:18;;;;;;;10.80;8.45;;;;;;;-0.38;75.63;98433.81;1788514;80;21054;-38
2022/11/22 07:38:46;;;;;;;12.63;8.03;;;;;;;-0.36;75.48;98446.28;1788478;80;21006;-38
2022/11/22 07:41:13;;;;;;;11.15;8.55;;;;;;;-0.31;75.49;98455.45;1788303;80;21157;-39
2022/11/22 07:43:41;;;;;;;11.25;7.92;;;;;;;-0.26;75.21;98463.84;1788038;80;21894;-39
2022/11/22 07:46:20;;;;;;;9.78;7.45;;;;;;;-0.26;75.04;98479.28;1757921;80;21010;-39
2022/11/22 07:48:48;;;;;;;10.00;7.95;;;;;;;-0.21;75.01;98481.02;1788038;80;21540;-39
2022/11/22 07:51:15;;;;;;;11.85;8.10;;;;;;;-0.18;74.93;98477.72;1788561;80;20993;-39
2022/11/22 07:53:42;;;;;;;9.88;8.05;;;;;;;-0.14;74.80;98472.80;1788102;80;21238;-38
2022/11/22 07:56:08;;;;;;;9.95;7.50;;;;;;;-0.11;74.83;98476.19;1757492;80;21512;-40
2022/11/22 07:58:37;;;;;;;9.70;7.25;;;;;;;-0.04;74.43;98478.38;1791595;80;20978;-39
2022/11/22 08:01:06;;;;;;;9.50;7.67;;;;;;;-0.04;74.23;98470.38;1794118;80;21010;-39
2022/11/22 08:03:34;;;;;;;11.12;7.55;;;;;;;0.01;74.07;98478.23;1794246;80;21001;-39
2022/11/22 08:06:02;;;;;;;10.53;7.70;;;;;;;0.01;73.60;98470.23;1794137;80;21932;-38
2022/11/22 08:08:30;;;;;;;10.15;8.18;;;;;;;0.04;73.71;98466.97;1793830;80;20982;-39
2022/11/22 08:10:57;;;;;;;11.65;8.18;;;;;;;0.08;73.81;98475.90;1793543;80;20966;-38
2022/11/22 08:13:24;;;;;;;10.85;7.22;;;;;;;0.12;73.30;98478.17;1793506;80;20986;-39
2022/11/22 08:15:51;;;;;;;10.00;8.08;;;;;;;0.16;72.94;98462.33;1793530;80;21109;-39
2022/11/22 08:18:18;;;;;;;9.08;7.25;;;;;;;0.14;72.98;98459.22;1793559;80;21132;-39
2022/11/22 08:20:45;;;;;;;8.13;6.70;;;;;;;0.17;73.19;98462.03;1793561;80;21018;-39
2022/11/22 08:23:13;;;;;;;10.48;7.70;;;;;;;0.19;73.00;98461.73;1793616;80;21001;-39
2022/11/22 08:25:40;;;;;;;10.40;7.62;;;;;;;0.21;72.86;98454.97;1793645;80;20962;-39
2022/11/22 08:28:06;;;;;;;9.78;7.12;;;;;;;0.19;72.48;98469.17;1793647;80;20974;-39
2022/11/22 08:30:33;;;;;;;10.95;8.05;;;;;;;0.23;72.59;98474.11;1793337;80;21309;-38
2022/11/22 08:33:00;;;;;;;9.53;7.60;;;;;;;0.25;72.65;98475.11;1793469;80;21054;-38
2022/11/22 08:35:27;;;;;;;9.85;7.55;;;;;;;0.25;72.62;98473.23;1793454;80;20966;-39
2022/11/22 08:37:56;;;;;;;9.25;7.33;;;;;;;0.31;73.05;98483.98;1793599;80;20891;-39
2022/11/22 08:40:23;;;;;;;8.63;6.43;;;;;;;0.35;72.28;98476.92;1793933;80;20962;-39
2022/11/22 08:42:54;;;;;;;10.15;7.28;;;;;;;0.32;71.95;98481.56;1793416;80;21603;-39
2022/11/22 08:45:21;;;;;;;9.00;7.40;;;;;;;0.34;72.04;98482.56;1793416;80;21020;-39
2022/11/22 08:47:49;;;;;;;10.53;7.08;;;;;;;0.36;72.30;98474.50;1793357;80;21026;-39
2022/11/22 08:50:17;;;;;;;8.28;7.03;;;;;;;0.43;72.18;98477.49;1793600;80;20966;-39
2022/11/22 08:52:43;;;;;;;9.53;7.22;;;;;;;0.49;71.92;98478.64;1793745;80;20958;-38
2022/11/22 08:55:11;;;;;;;9.30;7.70;;;;;;;0.52;71.44;98480.70;1793518;80;21222;-39
2022/11/22 08:57:37;;;;;;;7.95;6.37;;;;;;;0.53;71.68;98478.27;1792089;80;20966;-39
2022/11/22 09:00:07;;;;;;;8.25;6.75;;;;;;;0.54;71.27;98483.81;1779750;80;20935;-39
2022/11/22 09:02:35;;;;;;;8.83;7.10;;;;;;;0.58;71.01;98479.45;1779785;80;21492;-39
2022/11/22 09:05:03;;;;;;;11.70;7.25;;;;;;;0.56;71.34;98478.97;1779575;80;20996;-39
2022/11/22 09:07:31;;;;;;;8.50;6.35;;;;;;;0.63;71.45;98477.95;1779905;80;21281;-39
2022/11/22 09:09:58;;;;;;;10.23;7.53;;;;;;;0.70;71.41;98478.24;1779756;80;20939;-39
2022/11/22 09:12:25;;;;;;;9.15;6.87;;;;;;;0.73;71.32;98489.61;1779788;80;21704;-39
2022/11/22 09:14:54;;;;;;;9.25;7.45;;;;;;;0.72;70.95;98486.73;1779701;80;21580;-39
2022/11/22 09:17:21;;;;;;;8.90;6.78;;;;;;;0.66;70.52;98486.10;1779841;80;21516;-39
2022/11/22 09:19:48;;;;;;;8.85;7.15;;;;;;;0.62;71.05;98491.05;1779588;80;23212;-39
2022/11/22 09:22:15;;;;;;;8.88;7.05;;;;;;;0.60;70.87;98479.90;1779706;80;20991;-39
2022/11/22 09:24:43;;;;;;;8.70;6.97;;;;;;;0.56;71.13;98480.30;1779793;80;21320;-39
2022/11/22 09:27:10;;;;;;;8.63;6.75;;;;;;;0.55;71.19;98481.39;1779589;80;20998;-39
2022/11/22 09:29:37;;;;;;;7.37;5.97;;;;;;;0.54;71.35;98479.81;1779505;80;21082;-39
2022/11/22 09:32:09;;;;;;;8.63;6.80;;;;;;;0.57;71.52;98476.54;1779465;80;21148;-39
2022/11/22 09:34:36;;;;;;;8.60;6.58;;;;;;;0.56;71.37;98482.97;1779865;80;20975;-39
2022/11/22 09:37:03;;;;;;;9.48;6.92;;;;;;;0.55;70.99;98497.39;1779696;80;20982;-39
2022/11/22 09:39:30;;;;;;;8.40;6.75;;;;;;;0.56;71.22;98494.42;1779572;80;21047;-39
2022/11/22 09:42:21;;;;;;;8.30;6.75;;;;;;;0.62;71.37;98497.17;1779483;80;21078;-39
2022/11/22 09:45:20;;;;;;;7.80;6.62;;;;;;;0.67;70.99;98496.23;1779581;80;21469;-39
2022/11/22 09:48:10;;;;;;;9.48;6.75;;;;;;;0.63;71.02;98489.38;1779394;80;21000;-39
2022/11/22 09:51:01;;;;;;;8.63;6.45;;;;;;;0.66;71.43;98485.31;1779470;80;20955;-39
2022/11/22 09:53:46;;;;;;;9.23;7.15;;;;;;;0.68;71.37;98488.44;1778970;80;20970;-39
2022/11/22 09:56:15;;;;;;;8.90;7.37;;;;;;;0.68;70.88;98491.10;1779642;80;21089;-39
2022/11/22 09:58:59;;;;;;;9.98;7.30;;;;;;;0.65;71.45;98496.53;1779439;80;21091;-39
2022/11/22 10:01:45;;;;;;;10.70;7.70;;;;;;;0.72;71.41;98500.06;1779489;80;21014;-39
2022/11/22 10:04:21;;;;;;;10.25;7.83;;;;;;;0.72;71.54;98506.19;1779603;80;20935;-39
2022/11/22 10:06:55;;;;;;;10.43;7.50;;;;;;;0.78;71.61;98509.45;1779342;80;21400;-39
2022/11/22 10:09:50;;;;;;;9.33;7.47;;;;;;;0.74;71.55;98510.64;1779556;80;20966;-39
2022/11/22 10:12:52;;;;;;;10.63;8.45;;;;;;;0.74;71.65;98519.98;1779517;80;21274;-39
2022/11/22 10:15:56;;;;;;;11.88;8.30;;;;;;;0.72;71.74;98516.07;1779426;80;20998;-39
2022/11/22 10:18:40;;;;;;;10.15;7.72;;;;;;;0.71;71.55;98513.16;1779452;80;21030;-39
2022/11/22 14:27:58;;;;;;;14.45;11.55;;;;;;;0.50;78.17;98653.55;1817335;78;22649;-39
2022/11/22 14:30:42;;;;;;;17.05;11.95;;;;;;;0.56;77.82;98654.98;1797095;79;20939;-38
2022/11/22 14:33:18;;;;;;;16.93;11.70;;;;;;;0.54;77.65;98655.83;1791591;79;21464;-39
2022/11/22 14:36:08;;;;;;;15.53;11.15;;;;;;;0.51;77.34;98653.80;1797907;79;21362;-38
2022/11/22 14:38:41;;;;;;;16.37;11.68;;;;;;;0.54;77.03;98658.49;1797994;79;20994;-39
2022/11/22 14:41:40;;;;;;;15.70;11.45;;;;;;;0.56;76.56;98657.64;1798108;79;21559;-39
2022/11/22 14:44:24;;;;;;;15.15;11.33;;;;;;;0.53;76.34;98660.95;1798101;79;20959;-39
2022/11/22 14:46:57;;;;;;;14.38;10.82;;;;;;;0.50;76.39;98660.22;1797741;79;21263;-38
2022/11/22 14:49:41;;;;;;;15.95;11.12;;;;;;;0.58;76.25;98666.14;1798009;79;20916;-39
2022/11/22 14:52:27;;;;;;;16.67;11.22;;;;;;;0.64;75.97;98669.66;1798122;79;20936;-39
2022/11/22 14:54:59;;;;;;;17.95;12.37;;;;;;;0.60;75.98;98671.92;1795089;79;21078;-39
2022/11/22 14:57:28;;;;;;;16.80;11.97;;;;;;;0.60;75.96;98673.27;1797928;79;20978;-39
2022/11/22 15:00:08;;;;;;;16.80;11.45;;;;;;;0.63;75.86;98674.00;1742206;79;23095;-39
2022/11/22 15:03:09;;;;;;;16.67;11.30;;;;;;;0.67;75.50;98677.61;1797923;79;21071;-39
2022/11/22 15:06:14;;;;;;;15.65;11.15;;;;;;;0.63;75.55;98681.42;1797731;79;21015;-40
2022/11/22 15:09:21;;;;;;;18.12;11.70;;;;;;;0.57;75.65;98685.89;1797889;79;20955;-42
2022/11/22 15:12:06;;;;;;;16.57;11.50;;;;;;;0.58;75.81;98694.14;1751961;79;21000;-40
2022/11/22 15:14:58;;;;;;;19.25;12.40;;;;;;;0.59;75.66;98691.14;1797773;79;21238;-41
2022/11/22 15:17:26;;;;;;;18.42;12.68;;;;;;;0.55;75.82;98693.41;1797722;79;20951;-39
2022/11/22 15:19:55;;;;;;;19.57;12.40;;;;;;;0.56;76.05;98702.98;1767110;79;20932;-39
2022/11/22 15:22:27;;;;;;;17.40;12.53;;;;;;;0.61;75.91;98696.97;1797936;79;20993;-39
2022/11/22 15:24:56;;;;;;;20.08;12.55;;;;;;;0.67;75.76;98701.07;1797697;79;20986;-39
2022/11/22 15:27:32;;;;;;;21.37;12.70;;;;;;;0.69;75.98;98706.86;1798122;79;21217;-39
2022/11/22 15:30:15;;;;;;;19.80;12.43;;;;;;;0.72;75.96;98702.80;1796890;79;20987;-39
2022/11/22 15:32:46;;;;;;;16.77;11.25;;;;;;;0.72;75.73;98711.59;1797496;79;21003;-39
2022/11/22 15:35:22;;;;;;;21.77;13.10;;;;;;;0.78;75.63;98704.20;1797778;79;21006;-39
2022/11/22 15:37:54;;;;;;;18.45;12.40;;;;;;;0.78;75.52;98697.54;1797273;79;20998;-39
2022/11/22 15:40:22;;;;;;;19.23;13.32;;;;;;;0.75;75.46;98694.17;1797412;79;21741;-39
2022/11/22 15:42:56;;;;;;;19.70;12.65;;;;;;;0.72;75.42;98701.47;1797367;79;21576;-39
2022/11/22 15:45:27;;;;;;;18.05;12.85;;;;;;;0.73;75.37;98708.35;1791642;79;20916;-39
2022/11/22 15:48:02;;;;;;;20.00;12.95;;;;;;;0.79;75.42;98713.79;1797233;79;21018;-39
2022/11/22 15:50:29;;;;;;;18.87;13.30;;;;;;;0.77;75.30;98716.00;1797329;79;21003;-39
2022/11/22 15:53:22;;;;;;;20.02;12.58;;;;;;;0.72;75.41;98718.81;1797073;79;23163;-39
2022/11/22 15:55:59;;;;;;;17.32;12.70;;;;;;;0.70;75.43;98725.78;1766004;79;21478;-39
2022/11/22 15:58:27;;;;;;;17.87;13.13;;;;;;;0.70;75.38;98723.11;1797112;79;21011;-39
2022/11/22 16:00:54;;;;;;;17.92;12.82;;;;;;;0.69;75.55;98717.53;1797451;79;20919;-39
2022/11/22 16:03:24;;;;;;;18.12;12.60;;;;;;;0.69;75.63;98714.08;1797161;79;21086;-39
2022/11/22 16:05:54;;;;;;;18.42;12.40;;;;;;;0.72;75.65;98722.81;1797449;79;21167;-39
2022/11/22 16:08:20;;;;;;;19.60;12.67;;;;;;;0.76;75.33;98718.42;1797412;79;20928;-39
2022/11/22 16:10:49;;;;;;;20.48;13.22;;;;;;;0.75;75.22;98721.64;1797204;79;21004;-39
2022/11/22 16:13:24;;;;;;;18.27;12.57;;;;;;;0.73;75.37;98716.36;1797304;79;21020;-39
2022/11/22 16:16:14;;;;;;;19.60;12.20;;;;;;;0.75;75.46;98722.97;1797546;79;21031;-39
2022/11/22 16:18:43;;;;;;;18.05;12.63;;;;;;;0.80;75.20;98720.16;1769483;79;20893;-38
2022/11/22 16:21:18;;;;;;;16.80;11.88;;;;;;;0.76;75.11;98719.76;1797174;79;21018;-39
2022/11/22 16:23:45;;;;;;;18.75;12.07;;;;;;;0.74;75.12;98724.60;1797333;79;20979;-39
2022/11/22 16:26:32;;;;;;;17.98;11.93;;;;;;;0.74;75.15;98721.94;1797392;79;20991;-39
2022/11/22 16:29:17;;;;;;;18.80;12.20;;;;;;;0.79;75.06;98723.13;1796740;79;21078;-39
2022/11/22 16:31:43;;;;;;;16.95;11.78;;;;;;;0.84;75.18;98717.65;1762217;79;21242;-41
2022/11/22 16:34:14;;;;;;;18.92;11.28;;;;;;;0.87;75.04;98718.38;1766619;79;21468;-41
2022/11/22 16:36:42;;;;;;;17.95;11.70;;;;;;;0.86;74.68;98722.92;1797473;79;20888;-41
2022/11/22 16:39:08;;;;;;;17.82;11.85;;;;;;;0.83;74.77;98734.20;1797431;79;20995;-41
2022/11/22 16:41:36;;;;;;;15.63;11.70;;;;;;;0.83;74.83;98732.87;1797430;79;21078;-39
2022/11/22 16:44:11;;;;;;;17.37;11.68;;;;;;;0.83;74.72;98732.87;1797240;79;21145;-39
2022/11/22 16:46:40;;;;;;;17.85;11.35;;;;;;;0.88;74.54;98733.27;1797465;79;21012;-39
2022/11/22 16:49:19;;;;;;;12.20;8.88;;;;;;;0.90;74.44;98739.09;1796953;79;20998;-39
2022/11/22 16:51:49;;;;;;;21.97;12.70;;;;;;;0.89;74.55;98729.51;1797389;79;21620;-39
2022/11/22 16:54:18;;;;;;;16.35;11.45;;;;;;;0.85;74.44;98736.57;1797390;79;20920;-39
2022/11/22 16:56:44;;;;;;;15.98;11.50;;;;;;;0.84;74.56;98736.33;1797380;79;21191;-39
2022/11/22 16:59:11;;;;;;;16.90;11.48;;;;;;;0.91;74.56;98737.22;1797284;79;21086;-39
2022/11/22 17:01:43;;;;;;;16.12;10.65;;;;;;;0.96;74.53;98737.86;1797282;79;21315;-39
2022/11/22 17:04:24;;;;;;;18.95;12.33;;;;;;;0.98;74.42;98734.86;1797749;79;21430;-39
2022/11/22 17:06:51;;;;;;;15.50;11.68;;;;;;;0.97;74.33;98735.41;1797258;79;20912;-39
2022/11/22 17:09:18;;;;;;;16.67;11.75;;;;;;;0.97;74.33;98738.08;1797620;79;21127;-39
2022/11/22 17:11:44;;;;;;;15.50;11.20;;;;;;;1.00;74.43;98730.80;1797373;79;20988;-39
2022/11/22 17:14:16;;;;;;;17.90;12.03;;;;;;;1.01;74.29;98732.38;1797432;79;21063;-39
2022/11/22 17:16:45;;;;;;;17.35;12.00;;;;;;;1.06;74.09;98737.56;1797586;79;20955;-39
2022/11/22 17:19:12;;;;;;;18.70;11.55;;;;;;;1.07;74.13;98739.66;1797816;79;20983;-39
2022/11/22 17:21:40;;;;;;;18.23;12.10;;;;;;;1.05;74.20;98729.31;1797524;79;21226;-39
2022/11/22 17:24:19;;;;;;;16.80;11.90;;;;;;;1.06;74.25;98734.89;1797352;79;20995;-39
2022/11/22 17:26:46;;;;;;;18.82;12.58;;;;;;;1.10;74.27;98731.84;1791723;79;21595;-39
2022/11/22 17:29:13;;;;;;;18.85;12.23;;;;;;;1.17;73.96;98730.81;1786296;80;21038;-39
2022/11/22 17:31:43;;;;;;;17.67;12.35;;;;;;;1.19;73.91;98724.62;1786131;80;21078;-39
2022/11/22 17:34:10;;;;;;;;;;;;;;;1.27;74.02;98729.17;1788652;80;21113;-39
2022/11/22 17:36:37;;;;;;;17.42;12.35;;;;;;;1.36;73.91;98717.69;1786136;79;20150;-39
2022/11/22 17:39:07;;;;;;;20.35;13.10;;;;;;;1.35;73.73;98718.27;1764512;80;21075;-39
2022/11/22 17:41:34;;;;;;;18.05;12.50;;;;;;;1.42;73.19;98717.78;1786467;80;28158;-39
2022/11/22 17:44:01;;;;;;;17.15;12.07;;;;;;;1.45;72.82;98702.48;1786157;80;21000;-39
2022/11/22 17:46:30;;;;;;;18.00;12.28;;;;;;;1.42;72.86;98706.55;1786251;80;21128;-39
2022/11/22 17:49:00;;;;;;;20.40;12.13;;;;;;;1.37;72.66;98703.25;1786315;80;21007;-39
2022/11/22 17:51:28;;;;;;;18.23;11.22;;;;;;;1.28;72.60;98708.05;1786314;80;21564;-39
2022/11/22 17:53:57;;;;;;;17.10;11.83;;;;;;;1.22;72.76;98705.30;1786444;80;20940;-39
2022/11/22 17:56:29;;;;;;;13.45;9.53;;;;;;;1.19;72.72;98713.15;1786340;80;20991;-39
2022/11/22 17:58:55;;;;;;;17.90;12.30;;;;;;;1.16;72.91;98705.20;1786129;80;21196;-39
2022/11/22 18:01:23;;;;;;;18.15;13.10;;;;;;;1.12;73.06;98696.80;1785949;80;21518;-39
2022/11/22 18:03:50;;;;;;;17.73;12.58;;;;;;;1.07;72.92;98701.74;1786044;80;20960;-39
2022/11/22 18:06:20;;;;;;;17.57;13.08;;;;;;;1.07;73.03;98699.08;1786124;80;21353;-39
2022/11/22 18:08:46;;;;;;;;;;;;;;;1.04;73.23;98701.05;1788968;79;21680;-39
2022/11/22 18:11:14;;;;;;;21.45;13.62;;;;;;;1.02;73.09;98699.22;1786336;79;21200;-39
2022/11/22 18:13:42;;;;;;;22.13;14.87;;;;;;;0.99;73.26;98699.07;1786443;80;20948;-39
2022/11/22 18:16:14;;;;;;;20.55;14.33;;;;;;;0.98;73.29;98698.83;1786440;80;20971;-39
2022/11/22 18:18:41;;;;;;;20.80;14.78;;;;;;;0.96;73.41;98695.16;1786571;80;20994;-39
2022/11/22 18:21:09;;;;;;;19.12;14.13;;;;;;;0.96;73.57;98699.16;1786448;80;20979;-39
2022/11/22 18:23:36;;;;;;;17.67;12.55;;;;;;;1.00;73.35;98697.44;1786386;80;21159;-39
2022/11/22 18:26:08;;;;;;;15.67;10.87;;;;;;;0.95;73.39;98696.25;1786213;80;21504;-39
2022/11/22 18:28:35;;;;;;;19.02;12.93;;;;;;;0.95;73.32;98694.12;1786104;80;20952;-39
2022/11/22 18:31:02;;;;;;;18.98;13.22;;;;;;;0.88;73.43;98698.03;1786030;80;21075;-39
2022/11/22 18:33:29;;;;;;;20.10;12.80;;;;;;;0.89;73.54;98693.48;1786164;80;21079;-39
2022/11/22 18:36:03;;;;;;;22.07;14.10;;;;;;;0.89;73.46;98702.83;1786014;80;21226;-39
2022/11/22 18:38:30;;;;;;;18.20;13.38;;;;;;;0.82;73.29;98698.52;1785925;80;20967;-39
2022/11/22 18:41:00;;;;;;;21.45;13.60;;;;;;;0.76;73.43;98693.08;1785871;80;20988;-39
2022/11/22 18:43:27;;;;;;;18.32;13.18;;;;;;;0.76;73.70;98699.75;1785938;80;21028;-39
2022/11/22 18:46:00;;;;;;;19.23;13.03;;;;;;;0.81;73.46;98702.27;1786141;80;21004;-39
2022/11/22 18:48:28;;;;;;;18.15;13.03;;;;;;;0.80;73.42;98702.03;1786139;80;21218;-39
2022/11/22 18:51:07;;;;;;;17.20;12.65;;;;;;;0.82;73.33;98699.84;1780567;80;21016;-39
2022/11/22 18:53:31;;;;;;;18.27;12.65;;;;;;;0.80;73.26;98700.69;1785967;80;21517;-39
2022/11/22 18:56:05;;;;;;;18.50;13.80;;;;;;;0.77;73.18;98706.12;1786026;80;21485;-39
2022/11/22 18:58:32;;;;;;;18.70;13.32;;;;;;;0.78;73.29;98701.54;1786108;80;21031;-39
2022/11/22 19:01:01;;;;;;;18.98;13.38;;;;;;;0.80;72.77;98703.36;1786469;80;21076;-39
2022/11/22 19:03:27;;;;;;;17.67;13.40;;;;;;;0.77;72.73;98701.33;1763747;80;21022;-39
2022/11/22 19:05:54;;;;;;;17.42;12.63;;;;;;;0.79;72.78;98703.12;1786184;80;21462;-39
2022/11/22 19:08:21;;;;;;;17.48;12.60;;;;;;;0.80;72.54;98703.36;1786214;80;21569;-39
2022/11/22 19:10:56;;;;;;;18.87;14.00;;;;;;;0.81;72.52;98700.94;1786085;80;21000;-39
2022/11/22 19:13:24;;;;;;;19.23;13.65;;;;;;;0.82;72.58;98702.52;1786200;80;21202;-39
2022/11/22 19:15:50;;;;;;;19.98;13.98;;;;;;;0.80;72.67;98699.36;1786042;80;21527;-39
2022/11/22 19:18:19;;;;;;;20.60;13.10;;;;;;;0.81;72.83;98692.94;1786213;80;21544;-39
2022/11/22 19:20:47;;;;;;;;;;;;;;;0.82;72.71;98698.52;1789116;80;20931;-39
2022/11/22 19:23:14;;;;;;;17.32;12.37;;;;;;;0.78;72.58;98700.99;1786492;79;20166;-39
2022/11/22 19:25:41;;;;;;;18.20;13.25;;;;;;;0.68;72.86;98707.16;1786551;80;21153;-39
2022/11/22 19:28:09;;;;;;;16.65;12.20;;;;;;;0.67;73.00;98706.95;1786324;79;21044;-39
2022/11/22 19:30:37;;;;;;;16.30;12.13;;;;;;;0.68;72.81;98713.28;1786615;80;20932;-39
2022/11/22 19:33:04;;;;;;;17.77;11.88;;;;;;;0.68;72.87;98715.95;1786387;80;21019;-39
2022/11/22 19:35:35;;;;;;;17.00;12.68;;;;;;;0.69;72.67;98715.41;1786531;80;21599;-39
2022/11/22 19:38:02;;;;;;;13.35;10.70;;;;;;;0.67;72.66;98718.95;1786428;80;21242;-39
2022/11/22 19:40:29;;;;;;;14.60;10.75;;;;;;;0.67;72.59;98714.95;1786341;80;21014;-39
2022/11/22 19:42:55;;;;;;;17.45;11.90;;;;;;;0.62;72.68;98732.43;1786276;80;20998;-39
2022/11/22 19:45:23;;;;;;;16.67;11.60;;;;;;;0.58;72.94;98736.23;1786287;80;21602;-39
2022/11/22 19:47:51;;;;;;;14.53;10.70;;;;;;;0.59;72.99;98741.03;1786350;80;20972;-39
2022/11/22 19:50:19;;;;;;;14.30;10.65;;;;;;;0.57;73.10;98745.91;1786243;80;21238;-39
2022/11/22 19:52:46;;;;;;;15.65;11.45;;;;;;;0.57;73.13;98751.23;1786309;80;20995;-39
2022/11/22 19:55:14;;;;;;;14.60;9.80;;;;;;;0.54;73.26;98754.50;1786130;80;21513;-39
2022/11/22 19:57:42;;;;;;;13.50;10.00;;;;;;;0.54;73.00;98754.50;1786307;80;20889;-39
2022/11/22 20:00:11;;;;;;;12.75;9.60;;;;;;;0.49;72.53;98758.64;1786287;80;21564;-39
2022/11/22 20:02:39;;;;;;;11.03;8.28;;;;;;;0.50;72.36;98757.00;1786693;79;21077;-39
2022/11/22 20:05:08;;;;;;;14.75;10.43;;;;;;;0.46;72.22;98757.93;1786180;80;20955;-39
2022/11/22 20:07:35;;;;;;;12.57;9.47;;;;;;;0.44;72.36;98764.89;1786634;80;20955;-39
2022/11/22 20:10:06;;;;;;;11.80;9.50;;;;;;;0.47;72.45;98765.63;1780040;79;21677;-39
2022/11/22 20:12:33;;;;;;;9.07;7.47;;;;;;;0.47;72.34;98772.84;1787080;80;21039;-39
2022/11/22 20:14:59;;;;;;;13.22;9.28;;;;;;;0.44;71.84;98773.69;1786162;80;23117;-39
2022/11/22 20:17:29;;;;;;;11.12;8.50;;;;;;;0.39;71.66;98777.81;1786145;80;20991;-39
2022/11/22 20:19:56;;;;;;;11.08;8.70;;;;;;;0.34;71.92;98789.16;1786237;80;20999;-39
2022/11/22 20:22:23;;;;;;;11.00;7.95;;;;;;;0.35;71.62;98795.52;1786149;80;21094;-39
2022/11/22 20:24:49;;;;;;;11.75;8.33;;;;;;;0.32;71.59;98800.14;1786184;80;21007;-39
2022/11/22 20:27:17;;;;;;;12.10;8.58;;;;;;;0.30;70.95;98803.64;1786153;80;21190;-39
2022/11/22 20:29:44;;;;;;;12.73;9.55;;;;;;;0.24;71.38;98798.77;1786096;79;20928;-39
2022/11/22 20:32:11;;;;;;;13.20;9.48;;;;;;;0.24;71.59;98803.52;1781419;79;21026;-39
2022/11/22 20:34:39;;;;;;;12.15;8.73;;;;;;;0.25;71.86;98806.98;1773014;79;21021;-39
2022/11/22 20:37:06;;;;;;;14.28;9.33;;;;;;;0.28;71.79;98807.19;1773128;79;21537;-39
2022/11/22 20:39:35;;;;;;;11.97;8.65;;;;;;;0.29;71.84;98817.30;1772832;79;21237;-39
2022/11/22 20:42:03;;;;;;;12.13;8.60;;;;;;;0.31;71.77;98807.89;1772743;81;21047;-39
2022/11/22 20:44:32;;;;;;;12.53;8.73;;;;;;;0.31;71.91;98810.56;1772935;81;21378;-39
2022/11/22 20:47:00;;;;;;;11.03;8.35;;;;;;;0.35;71.89;98816.06;1772754;81;20989;-39
2022/11/22 20:49:29;;;;;;;11.15;8.50;;;;;;;0.35;72.03;98826.19;1772977;81;21672;-39
2022/11/22 20:51:56;;;;;;;12.03;9.20;;;;;;;0.37;71.98;98829.34;1773018;81;21304;-39
2022/11/22 20:54:23;;;;;;;12.03;9.58;;;;;;;0.38;72.24;98830.13;1772831;81;21215;-39
2022/11/22 20:56:50;;;;;;;12.18;8.93;;;;;;;0.36;72.27;98839.77;1773050;81;20990;-39